sensor_id;sensor_type;location;lat;lon;timestamp;pressure;altitude;pressure_sealevel;temperature;humidity
39729;BME280;25402;42.004;23.088;2023-09-12T00:01:24;97512.16;;;10.92;40.85
39729;BME280;25402;42.004;23.088;2023-09-12T00:03:51;97562.34;;;11.24;40.38
39729;BME280;25402;42.004;23.088;2023-09-12T00:06:18;97565.81;;;11.18;40.68
39729;BME280;25402;42.004;23.088;2023-09-12T00:08:46;97566.66;;;11.18;40.98
39729;BME280;25402;42.004;23.088;2023-09-12T00:11:13;97572.66;;;11.14;40.75
39729;BME280;25402;42.004;23.088;2023-09-12T00:13:40;97574.06;;;11.09;40.92
39729;BME280;25402;42.004;23.088;2023-09-12T00:16:08;97572.28;;;11.02;41.50
39729;BME280;25402;42.004;23.088;2023-09-12T00:18:37;97579.94;;;10.84;41.57
39729;BME280;25402;42.004;23.088;2023-09-12T00:21:04;97574.34;;;10.85;41.50
39729;BME280;25402;42.004;23.088;2023-09-12T00:23:31;97578.06;;;10.84;41.18
39729;BME280;25402;42.004;23.088;2023-09-12T00:25:58;97580.94;;;10.83;41.35
39729;BME280;25402;42.004;23.088;2023-09-12T00:28:25;97583.28;;;10.86;41.05
39729;BME280;25402;42.004;23.088;2023-09-12T00:30:52;97586.19;;;10.84;41.12
39729;BME280;25402;42.004;23.088;2023-09-12T00:33:19;97576.94;;;10.78;41.50
39729;BME280;25402;42.004;23.088;2023-09-12T00:35:47;97573.09;;;10.73;41.45
39729;BME280;25402;42.004;23.088;2023-09-12T00:38:14;97582.91;;;10.74;41.73
39729;BME280;25402;42.004;23.088;2023-09-12T00:40:41;97557.69;;;10.59;41.62
39729;BME280;25402;42.004;23.088;2023-09-12T00:43:08;97584.75;;;10.73;41.63
39729;BME280;25402;42.004;23.088;2023-09-12T00:45:35;97586.25;;;10.76;41.30
39729;BME280;25402;42.004;23.088;2023-09-12T00:48:04;97589.34;;;10.73;41.27
39729;BME280;25402;42.004;23.088;2023-09-12T00:50:32;97585.34;;;10.69;41.54
39729;BME280;25402;42.004;23.088;2023-09-12T00:53:02;97592.63;;;10.68;41.50
39729;BME280;25402;42.004;23.088;2023-09-12T00:55:31;97590.09;;;10.67;41.83
39729;BME280;25402;42.004;23.088;2023-09-12T00:57:59;97591.13;;;10.66;42.19
39729;BME280;25402;42.004;23.088;2023-09-12T01:00:27;97570.66;;;10.49;42.26
39729;BME280;25402;42.004;23.088;2023-09-12T01:02:54;97584.00;;;10.50;42.17
39729;BME280;25402;42.004;23.088;2023-09-12T01:05:22;97597.53;;;10.50;41.94
39729;BME280;25402;42.004;23.088;2023-09-12T01:07:50;97591.81;;;10.45;42.10
39729;BME280;25402;42.004;23.088;2023-09-12T01:10:18;97606.19;;;10.46;41.96
39729;BME280;25402;42.004;23.088;2023-09-12T01:12:45;97604.03;;;10.41;41.78
39729;BME280;25402;42.004;23.088;2023-09-12T01:15:12;97605.69;;;10.27;42.53
39729;BME280;25402;42.004;23.088;2023-09-12T01:17:41;97601.38;;;10.18;42.58
39729;BME280;25402;42.004;23.088;2023-09-12T01:20:12;97587.19;;;9.93;42.90
39729;BME280;25402;42.004;23.088;2023-09-12T01:22:55;97595.84;;;10.12;42.75
39729;BME280;25402;42.004;23.088;2023-09-12T01:25:52;97604.97;;;10.11;42.62
39729;BME280;25402;42.004;23.088;2023-09-12T01:28:24;97608.94;;;10.00;42.74
39729;BME280;25402;42.004;23.088;2023-09-12T01:30:52;97612.47;;;10.00;43.26
39729;BME280;25402;42.004;23.088;2023-09-12T01:33:20;97616.00;;;10.01;42.97
39729;BME280;25402;42.004;23.088;2023-09-12T01:35:47;97619.19;;;9.82;43.68
39729;BME280;25402;42.004;23.088;2023-09-12T01:38:14;97616.44;;;9.90;43.33
39729;BME280;25402;42.004;23.088;2023-09-12T01:40:44;97618.75;;;9.93;43.23
39729;BME280;25402;42.004;23.088;2023-09-12T01:43:14;97627.88;;;9.92;43.46
39729;BME280;25402;42.004;23.088;2023-09-12T01:45:44;97620.00;;;9.90;43.28
39729;BME280;25402;42.004;23.088;2023-09-12T01:48:11;97627.06;;;9.91;43.28
39729;BME280;25402;42.004;23.088;2023-09-12T01:50:38;97622.88;;;9.89;42.90
39729;BME280;25402;42.004;23.088;2023-09-12T01:53:05;97629.28;;;9.88;43.20
39729;BME280;25402;42.004;23.088;2023-09-12T01:55:33;97629.66;;;9.85;43.17
39729;BME280;25402;42.004;23.088;2023-09-12T01:58:01;97619.69;;;9.85;43.34
39729;BME280;25402;42.004;23.088;2023-09-12T02:00:28;97620.56;;;9.78;43.58
39729;BME280;25402;42.004;23.088;2023-09-12T02:02:57;97630.00;;;9.82;43.36
39729;BME280;25402;42.004;23.088;2023-09-12T02:05:23;97629.69;;;9.77;43.43
39729;BME280;25402;42.004;23.088;2023-09-12T02:07:50;97630.53;;;9.77;43.64
39729;BME280;25402;42.004;23.088;2023-09-12T02:10:17;97635.75;;;9.79;43.63
39729;BME280;25402;42.004;23.088;2023-09-12T02:12:44;97628.97;;;9.83;43.36
39729;BME280;25402;42.004;23.088;2023-09-12T02:15:11;97635.47;;;9.73;43.54
39729;BME280;25402;42.004;23.088;2023-09-12T02:17:38;97639.19;;;9.72;43.71
39729;BME280;25402;42.004;23.088;2023-09-12T02:20:08;97643.09;;;9.70;43.63
39729;BME280;25402;42.004;23.088;2023-09-12T02:22:35;97642.91;;;9.71;43.24
39729;BME280;25402;42.004;23.088;2023-09-12T02:25:03;97645.97;;;9.68;43.61
39729;BME280;25402;42.004;23.088;2023-09-12T02:27:31;97650.19;;;9.63;43.90
39729;BME280;25402;42.004;23.088;2023-09-12T02:29:58;97644.34;;;9.59;43.85
39729;BME280;25402;42.004;23.088;2023-09-12T02:32:24;97651.59;;;9.59;43.67
39729;BME280;25402;42.004;23.088;2023-09-12T02:34:52;97643.00;;;9.55;44.04
39729;BME280;25402;42.004;23.088;2023-09-12T02:37:23;97626.88;;;9.39;43.88
39729;BME280;25402;42.004;23.088;2023-09-12T02:39:50;97659.22;;;9.47;44.04
39729;BME280;25402;42.004;23.088;2023-09-12T02:42:17;97657.94;;;9.43;44.11
39729;BME280;25402;42.004;23.088;2023-09-12T02:44:43;97635.38;;;9.28;44.05
39729;BME280;25402;42.004;23.088;2023-09-12T02:47:10;97656.41;;;9.41;44.05
39729;BME280;25402;42.004;23.088;2023-09-12T02:49:37;97660.06;;;9.48;43.70
39729;BME280;25402;42.004;23.088;2023-09-12T02:52:04;97657.53;;;9.46;43.71
39729;BME280;25402;42.004;23.088;2023-09-12T02:54:32;97653.81;;;9.47;43.54
39729;BME280;25402;42.004;23.088;2023-09-12T02:56:59;97658.56;;;9.45;43.68
39729;BME280;25402;42.004;23.088;2023-09-12T02:59:27;97656.25;;;9.42;43.74
39729;BME280;25402;42.004;23.088;2023-09-12T03:01:54;97656.25;;;9.42;43.78
39729;BME280;25402;42.004;23.088;2023-09-12T03:04:21;97658.63;;;9.37;43.94
39729;BME280;25402;42.004;23.088;2023-09-12T03:06:48;97665.88;;;9.36;43.69
39729;BME280;25402;42.004;23.088;2023-09-12T03:09:14;97664.69;;;9.31;43.98
39729;BME280;25402;42.004;23.088;2023-09-12T03:11:44;97666.09;;;9.27;43.88
39729;BME280;25402;42.004;23.088;2023-09-12T03:14:10;97665.72;;;9.30;43.70
39729;BME280;25402;42.004;23.088;2023-09-12T03:16:37;97660.31;;;9.30;43.70
39729;BME280;25402;42.004;23.088;2023-09-12T03:19:05;97647.53;;;9.24;44.04
39729;BME280;25402;42.004;23.088;2023-09-12T03:21:32;97665.72;;;9.30;43.86
39729;BME280;25402;42.004;23.088;2023-09-12T03:23:58;97658.16;;;9.25;43.97
39729;BME280;25402;42.004;23.088;2023-09-12T03:26:25;97661.88;;;9.24;44.03
39729;BME280;25402;42.004;23.088;2023-09-12T03:28:53;97648.56;;;9.23;44.70
39729;BME280;25402;42.004;23.088;2023-09-12T03:31:20;97652.03;;;9.31;45.12
39729;BME280;25402;42.004;23.088;2023-09-12T03:33:48;97665.53;;;9.40;45.31
39729;BME280;25402;42.004;23.088;2023-09-12T03:36:16;97663.00;;;9.38;44.91
39729;BME280;25402;42.004;23.088;2023-09-12T03:38:43;97644.66;;;9.25;44.44
39729;BME280;25402;42.004;23.088;2023-09-12T03:41:10;97666.38;;;9.32;44.65
39729;BME280;25402;42.004;23.088;2023-09-12T03:43:37;97643.84;;;9.17;44.59
39729;BME280;25402;42.004;23.088;2023-09-12T03:46:05;97679.03;;;9.31;44.61
39729;BME280;25402;42.004;23.088;2023-09-12T03:48:33;97678.88;;;9.33;44.41
39729;BME280;25402;42.004;23.088;2023-09-12T03:51:02;97681.56;;;9.33;44.26
39729;BME280;25402;42.004;23.088;2023-09-12T03:53:29;97685.53;;;9.53;51.07
39729;BME280;25402;42.004;23.088;2023-09-12T03:55:57;97683.59;;;10.01;49.45
39729;BME280;25402;42.004;23.088;2023-09-12T03:58:25;97687.09;;;10.32;49.13
39729;BME280;25402;42.004;23.088;2023-09-12T04:00:51;97681.72;;;10.70;48.59
39729;BME280;25402;42.004;23.088;2023-09-12T04:03:20;97694.34;;;10.92;47.34
39729;BME280;25402;42.004;23.088;2023-09-12T04:05:47;97678.50;;;11.04;45.82
39729;BME280;25402;42.004;23.088;2023-09-12T04:08:14;97696.19;;;11.15;46.00
39729;BME280;25402;42.004;23.088;2023-09-12T04:10:41;97690.75;;;11.29;45.74
39729;BME280;25402;42.004;23.088;2023-09-12T04:13:08;97695.03;;;11.38;44.42
39729;BME280;25402;42.004;23.088;2023-09-12T04:15:34;97686.06;;;11.38;42.82
39729;BME280;25402;42.004;23.088;2023-09-12T04:18:01;97697.38;;;11.56;43.22
39729;BME280;25402;42.004;23.088;2023-09-12T04:20:29;97694.72;;;11.77;42.78
39729;BME280;25402;42.004;23.088;2023-09-12T04:22:56;97691.38;;;11.90;42.28
39729;BME280;25402;42.004;23.088;2023-09-12T04:25:23;97693.19;;;12.04;41.60
39729;BME280;25402;42.004;23.088;2023-09-12T04:27:51;97668.88;;;11.96;41.28
39729;BME280;25402;42.004;23.088;2023-09-12T04:30:17;97705.28;;;12.23;40.82
39729;BME280;25402;42.004;23.088;2023-09-12T04:32:44;97709.91;;;12.29;40.13
39729;BME280;25402;42.004;23.088;2023-09-12T04:35:11;97708.22;;;12.43;39.89
39729;BME280;25402;42.004;23.088;2023-09-12T04:37:40;97712.81;;;12.92;39.39
39729;BME280;25402;42.004;23.088;2023-09-12T04:40:08;97700.63;;;13.37;38.31
39729;BME280;25402;42.004;23.088;2023-09-12T04:42:35;97717.44;;;13.95;37.15
39729;BME280;25402;42.004;23.088;2023-09-12T04:45:04;97697.47;;;14.29;35.86
39729;BME280;25402;42.004;23.088;2023-09-12T04:47:46;97616.69;;;14.29;34.96
39729;BME280;25402;42.004;23.088;2023-09-12T04:50:21;97638.25;;;14.90;33.84
39729;BME280;25402;42.004;23.088;2023-09-12T04:52:52;97613.09;;;15.01;33.45
39729;BME280;25402;42.004;23.088;2023-09-12T04:55:23;97636.50;;;15.42;32.76
39729;BME280;25402;42.004;23.088;2023-09-12T04:57:51;97688.22;;;16.13;32.58
39729;BME280;25402;42.004;23.088;2023-09-12T05:00:18;97669.56;;;16.41;31.56
39729;BME280;25402;42.004;23.088;2023-09-12T05:02:46;97654.69;;;16.68;30.73
39729;BME280;25402;42.004;23.088;2023-09-12T05:05:13;97669.94;;;17.01;30.42
39729;BME280;25402;42.004;23.088;2023-09-12T05:07:40;97699.47;;;17.60;29.86
39729;BME280;25402;42.004;23.088;2023-09-12T05:10:10;97668.09;;;17.63;29.17
39729;BME280;25402;42.004;23.088;2023-09-12T05:12:38;97718.53;;;18.22;29.20
39729;BME280;25402;42.004;23.088;2023-09-12T05:15:06;97733.66;;;18.84;28.13
39729;BME280;25402;42.004;23.088;2023-09-12T05:17:34;97734.22;;;19.16;27.70
39729;BME280;25402;42.004;23.088;2023-09-12T05:20:01;97687.16;;;19.19;27.02
39729;BME280;25402;42.004;23.088;2023-09-12T05:22:29;97655.06;;;19.20;27.06
39729;BME280;25402;42.004;23.088;2023-09-12T05:24:56;97644.88;;;19.55;26.57
39729;BME280;25402;42.004;23.088;2023-09-12T05:27:24;97722.88;;;20.46;25.86
39729;BME280;25402;42.004;23.088;2023-09-12T05:29:51;97663.56;;;20.22;25.53
39729;BME280;25402;42.004;23.088;2023-09-12T05:32:18;97719.06;;;20.92;24.95
39729;BME280;25402;42.004;23.088;2023-09-12T05:34:45;97709.66;;;21.05;24.88
39729;BME280;25402;42.004;23.088;2023-09-12T05:37:15;97670.06;;;21.06;24.70
39729;BME280;25402;42.004;23.088;2023-09-12T05:39:42;97726.66;;;21.52;24.35
39729;BME280;25402;42.004;23.088;2023-09-12T05:42:09;97612.19;;;20.84;24.45
39729;BME280;25402;42.004;23.088;2023-09-12T05:44:37;97670.94;;;21.28;24.44
39729;BME280;25402;42.004;23.088;2023-09-12T05:47:04;97719.44;;;21.68;23.87
39729;BME280;25402;42.004;23.088;2023-09-12T05:49:32;97647.03;;;20.95;24.12
39729;BME280;25402;42.004;23.088;2023-09-12T05:52:00;97661.09;;;21.32;24.19
39729;BME280;25402;42.004;23.088;2023-09-12T05:54:28;97650.44;;;21.36;23.60
39729;BME280;25402;42.004;23.088;2023-09-12T05:56:55;97692.47;;;21.48;24.19
39729;BME280;25402;42.004;23.088;2023-09-12T05:59:23;97728.13;;;21.60;24.32
39729;BME280;25402;42.004;23.088;2023-09-12T06:01:51;97620.31;;;20.91;24.15
39729;BME280;25402;42.004;23.088;2023-09-12T06:04:19;97680.63;;;21.14;24.35
39729;BME280;25402;42.004;23.088;2023-09-12T06:06:46;97686.63;;;21.11;24.51
39729;BME280;25402;42.004;23.088;2023-09-12T06:09:13;97682.53;;;20.97;24.40
39729;BME280;25402;42.004;23.088;2023-09-12T06:11:40;97632.34;;;20.56;24.42
39729;BME280;25402;42.004;23.088;2023-09-12T06:14:07;97731.16;;;21.08;24.80
39729;BME280;25402;42.004;23.088;2023-09-12T06:16:34;97667.00;;;20.57;25.05
39729;BME280;25402;42.004;23.088;2023-09-12T06:19:03;97645.81;;;20.41;24.75
39729;BME280;25402;42.004;23.088;2023-09-12T06:21:30;97678.59;;;20.76;24.95
39729;BME280;25402;42.004;23.088;2023-09-12T06:24:10;97677.22;;;20.45;24.96
39729;BME280;25402;42.004;23.088;2023-09-12T06:26:37;97654.97;;;20.18;25.36
39729;BME280;25402;42.004;23.088;2023-09-12T06:29:05;97643.47;;;20.33;25.19
39729;BME280;25402;42.004;23.088;2023-09-12T06:31:33;97626.44;;;20.19;25.13
39729;BME280;25402;42.004;23.088;2023-09-12T06:34:03;97705.56;;;20.62;25.01
39729;BME280;25402;42.004;23.088;2023-09-12T06:36:30;97691.81;;;20.62;24.82
39729;BME280;25402;42.004;23.088;2023-09-12T06:38:58;97634.03;;;20.29;25.40
39729;BME280;25402;42.004;23.088;2023-09-12T06:41:25;97645.47;;;20.37;25.05
39729;BME280;25402;42.004;23.088;2023-09-12T06:43:53;97723.25;;;20.83;24.86
39729;BME280;25402;42.004;23.088;2023-09-12T06:46:22;97721.09;;;20.85;25.09
39729;BME280;25402;42.004;23.088;2023-09-12T06:48:49;97724.69;;;20.86;24.82
39729;BME280;25402;42.004;23.088;2023-09-12T06:51:17;97706.34;;;20.74;25.15
39729;BME280;25402;42.004;23.088;2023-09-12T06:53:44;97634.06;;;20.17;25.29
39729;BME280;25402;42.004;23.088;2023-09-12T06:56:11;97687.44;;;20.21;25.64
39729;BME280;25402;42.004;23.088;2023-09-12T06:58:38;97696.19;;;20.30;25.69
39729;BME280;25402;42.004;23.088;2023-09-12T07:01:05;97641.44;;;20.00;25.47
39729;BME280;25402;42.004;23.088;2023-09-12T07:03:37;97717.75;;;20.38;25.26
39729;BME280;25402;42.004;23.088;2023-09-12T07:06:05;97667.09;;;20.05;25.19
39729;BME280;25402;42.004;23.088;2023-09-12T07:08:43;97684.53;;;19.99;25.88
39729;BME280;25402;42.004;23.088;2023-09-12T07:11:13;97653.56;;;19.75;25.63
39729;BME280;25402;42.004;23.088;2023-09-12T07:13:46;97711.13;;;20.10;25.68
39729;BME280;25402;42.004;23.088;2023-09-12T07:16:13;97623.75;;;19.56;25.94
39729;BME280;25402;42.004;23.088;2023-09-12T07:18:43;97702.91;;;20.10;25.83
39729;BME280;25402;42.004;23.088;2023-09-12T07:21:12;97712.22;;;20.09;25.85
39729;BME280;25402;42.004;23.088;2023-09-12T07:23:41;97710.66;;;20.13;26.35
39729;BME280;25402;42.004;23.088;2023-09-12T07:26:12;97693.75;;;19.93;26.17
39729;BME280;25402;42.004;23.088;2023-09-12T07:28:39;97656.00;;;19.49;26.13
39729;BME280;25402;42.004;23.088;2023-09-12T07:31:06;97705.47;;;19.65;26.54
39729;BME280;25402;42.004;23.088;2023-09-12T07:33:33;97706.56;;;19.76;26.60
39729;BME280;25402;42.004;23.088;2023-09-12T07:36:03;97603.81;;;19.20;26.74
39729;BME280;25402;42.004;23.088;2023-09-12T07:38:30;97628.56;;;19.49;26.29
39729;BME280;25402;42.004;23.088;2023-09-12T07:40:59;97626.97;;;19.64;26.04
39729;BME280;25402;42.004;23.088;2023-09-12T07:43:28;97654.25;;;19.94;25.77
39729;BME280;25402;42.004;23.088;2023-09-12T07:46:03;97661.41;;;19.95;26.00
39729;BME280;25402;42.004;23.088;2023-09-12T07:48:32;97581.16;;;19.53;25.70
39729;BME280;25402;42.004;23.088;2023-09-12T07:50:59;97692.41;;;20.07;25.75
39729;BME280;25402;42.004;23.088;2023-09-12T07:53:26;97641.22;;;19.26;26.57
39729;BME280;25402;42.004;23.088;2023-09-12T07:55:54;97600.06;;;18.68;27.24
39729;BME280;25402;42.004;23.088;2023-09-12T07:58:27;97677.94;;;19.25;26.77
39729;BME280;25402;42.004;23.088;2023-09-12T08:00:54;97639.94;;;19.17;26.58
39729;BME280;25402;42.004;23.088;2023-09-12T08:03:21;97648.59;;;19.49;26.80
39729;BME280;25402;42.004;23.088;2023-09-12T08:05:54;97673.47;;;19.94;26.48
39729;BME280;25402;42.004;23.088;2023-09-12T08:08:22;97581.28;;;19.70;25.71
39729;BME280;25402;42.004;23.088;2023-09-12T08:10:49;97633.56;;;20.32;25.85
39729;BME280;25402;42.004;23.088;2023-09-12T08:13:17;97587.56;;;20.10;24.81
39729;BME280;25402;42.004;23.088;2023-09-12T08:15:47;97620.78;;;20.54;24.21
39729;BME280;25402;42.004;23.088;2023-09-12T08:18:33;97645.31;;;20.89;24.27
39729;BME280;25402;42.004;23.088;2023-09-12T08:21:00;97556.97;;;20.52;24.21
39729;BME280;25402;42.004;23.088;2023-09-12T08:23:27;97657.13;;;21.23;23.63
39729;BME280;25402;42.004;23.088;2023-09-12T08:25:54;97617.09;;;21.15;23.89
39729;BME280;25402;42.004;23.088;2023-09-12T08:28:22;97612.84;;;21.25;23.49
39729;BME280;25402;42.004;23.088;2023-09-12T08:30:51;97646.53;;;21.70;23.16
39729;BME280;25402;42.004;23.088;2023-09-12T08:33:18;97629.81;;;21.77;23.18
39729;BME280;25402;42.004;23.088;2023-09-12T08:35:47;97646.53;;;22.14;22.50
39729;BME280;25402;42.004;23.088;2023-09-12T08:38:27;97606.81;;;22.10;22.64
39729;BME280;25402;42.004;23.088;2023-09-12T08:40:55;97561.94;;;21.88;22.44
39729;BME280;25402;42.004;23.088;2023-09-12T08:43:22;97568.63;;;21.97;22.17
39729;BME280;25402;42.004;23.088;2023-09-12T08:45:52;97578.25;;;22.16;22.39
39729;BME280;25402;42.004;23.088;2023-09-12T08:48:21;97606.91;;;22.47;22.18
39729;BME280;25402;42.004;23.088;2023-09-12T08:50:50;97559.69;;;22.38;22.08
39729;BME280;25402;42.004;23.088;2023-09-12T08:53:19;97575.69;;;22.68;21.85
39729;BME280;25402;42.004;23.088;2023-09-12T08:55:48;97622.38;;;23.12;21.39
39729;BME280;25402;42.004;23.088;2023-09-12T08:58:15;97578.88;;;22.87;20.95
39729;BME280;25402;42.004;23.088;2023-09-12T09:00:43;97501.56;;;22.40;21.42
39729;BME280;25402;42.004;23.088;2023-09-12T09:03:14;97589.44;;;23.00;21.23
39729;BME280;25402;42.004;23.088;2023-09-12T09:05:43;97489.28;;;22.58;21.33
39729;BME280;25402;42.004;23.088;2023-09-12T09:08:12;97603.53;;;23.46;21.10
39729;BME280;25402;42.004;23.088;2023-09-12T09:10:55;97612.84;;;23.77;20.85
39729;BME280;25402;42.004;23.088;2023-09-12T09:13:28;97606.28;;;23.98;20.57
39729;BME280;25402;42.004;23.088;2023-09-12T09:16:12;97597.25;;;24.23;20.42
39729;BME280;25402;42.004;23.088;2023-09-12T09:18:56;97592.03;;;24.37;20.28
39729;BME280;25402;42.004;23.088;2023-09-12T09:21:25;97493.50;;;23.80;20.46
39729;BME280;25402;42.004;23.088;2023-09-12T09:23:54;97487.75;;;23.97;20.50
39729;BME280;25402;42.004;23.088;2023-09-12T09:26:21;97475.31;;;24.09;20.33
39729;BME280;25402;42.004;23.088;2023-09-12T09:29:03;97585.97;;;25.01;19.99
39729;BME280;25402;42.004;23.088;2023-09-12T09:31:34;97594.81;;;25.13;19.97
39729;BME280;25402;42.004;23.088;2023-09-12T09:34:12;97474.78;;;24.68;20.03
39729;BME280;25402;42.004;23.088;2023-09-12T09:36:43;97529.44;;;25.22;19.56
39729;BME280;25402;42.004;23.088;2023-09-12T09:39:11;97541.59;;;25.46;19.36
39729;BME280;25402;42.004;23.088;2023-09-12T09:41:39;97528.25;;;25.53;19.03
39729;BME280;25402;42.004;23.088;2023-09-12T09:44:08;97567.75;;;25.74;19.08
39729;BME280;25402;42.004;23.088;2023-09-12T09:46:35;97487.59;;;25.39;18.93
39729;BME280;25402;42.004;23.088;2023-09-12T09:49:05;97533.81;;;25.48;19.11
39729;BME280;25402;42.004;23.088;2023-09-12T09:51:40;97532.00;;;25.83;19.03
39729;BME280;25402;42.004;23.088;2023-09-12T09:54:08;97491.53;;;25.87;18.94
39729;BME280;25402;42.004;23.088;2023-09-12T09:56:45;97478.09;;;26.04;18.47
39729;BME280;25402;42.004;23.088;2023-09-12T09:59:14;97447.34;;;26.01;18.33
39729;BME280;25402;42.004;23.088;2023-09-12T10:01:43;97504.88;;;26.58;18.33
39729;BME280;25402;42.004;23.088;2023-09-12T10:04:12;97443.22;;;26.37;18.33
39729;BME280;25402;42.004;23.088;2023-09-12T10:06:42;97500.88;;;26.98;17.53
39729;BME280;25402;42.004;23.088;2023-09-12T10:09:10;97501.00;;;27.12;17.31
39729;BME280;25402;42.004;23.088;2023-09-12T10:11:39;97467.41;;;27.13;17.23
39729;BME280;25402;42.004;23.088;2023-09-12T10:14:07;97450.97;;;27.17;16.93
39729;BME280;25402;42.004;23.088;2023-09-12T10:16:35;97485.38;;;27.45;17.12
39729;BME280;25402;42.004;23.088;2023-09-12T10:19:08;97463.81;;;27.37;16.78
39729;BME280;25402;42.004;23.088;2023-09-12T10:21:46;97439.13;;;27.35;16.91
39729;BME280;25402;42.004;23.088;2023-09-12T10:24:15;97463.81;;;27.55;16.77
39729;BME280;25402;42.004;23.088;2023-09-12T10:26:43;97414.78;;;27.27;16.62
39729;BME280;25402;42.004;23.088;2023-09-12T10:29:13;97399.66;;;27.38;16.31
39729;BME280;25402;42.004;23.088;2023-09-12T10:31:41;97383.94;;;27.47;16.54
39729;BME280;25402;42.004;23.088;2023-09-12T10:34:08;97477.06;;;28.20;15.77
39729;BME280;25402;42.004;23.088;2023-09-12T10:36:41;97447.25;;;28.07;15.54
39729;BME280;25402;42.004;23.088;2023-09-12T10:39:09;97416.97;;;28.05;15.37
39729;BME280;25402;42.004;23.088;2023-09-12T10:41:38;97493.66;;;28.62;15.82
39729;BME280;25402;42.004;23.088;2023-09-12T10:44:09;97487.69;;;28.69;15.78
39729;BME280;25402;42.004;23.088;2023-09-12T10:46:37;97450.56;;;28.60;15.46
39729;BME280;25402;42.004;23.088;2023-09-12T10:49:06;97462.56;;;28.74;15.25
39729;BME280;25402;42.004;23.088;2023-09-12T10:51:37;97488.78;;;29.00;15.37
39729;BME280;25402;42.004;23.088;2023-09-12T10:54:06;97401.84;;;28.30;15.14
39729;BME280;25402;42.004;23.088;2023-09-12T10:56:34;97486.41;;;28.80;14.54
39729;BME280;25402;42.004;23.088;2023-09-12T10:59:12;97472.56;;;28.75;14.32
39729;BME280;25402;42.004;23.088;2023-09-12T11:01:43;97462.19;;;28.94;14.79
39729;BME280;25402;42.004;23.088;2023-09-12T11:04:31;97453.72;;;29.13;14.59
39729;BME280;25402;42.004;23.088;2023-09-12T11:07:00;97457.75;;;29.34;14.40
39729;BME280;25402;42.004;23.088;2023-09-12T11:09:29;97456.09;;;29.47;14.07
39729;BME280;25402;42.004;23.088;2023-09-12T11:11:59;97364.09;;;28.97;13.13
39729;BME280;25402;42.004;23.088;2023-09-12T11:14:28;97356.97;;;29.05;13.23
39729;BME280;25402;42.004;23.088;2023-09-12T11:17:23;97450.00;;;29.72;12.23
39729;BME280;25402;42.004;23.088;2023-09-12T11:19:51;97422.75;;;29.69;12.17
39729;BME280;25402;42.004;23.088;2023-09-12T11:22:24;97447.84;;;29.92;11.72
39729;BME280;25402;42.004;23.088;2023-09-12T11:24:55;97353.28;;;29.23;11.58
39729;BME280;25402;42.004;23.088;2023-09-12T11:27:23;97349.94;;;29.35;11.18
39729;BME280;25402;42.004;23.088;2023-09-12T11:29:50;97339.69;;;29.44;11.74
39729;BME280;25402;42.004;23.088;2023-09-12T11:32:26;97345.97;;;29.50;12.07
39729;BME280;25402;42.004;23.088;2023-09-12T11:34:53;97353.31;;;29.59;12.57
39729;BME280;25402;42.004;23.088;2023-09-12T11:37:24;97352.88;;;29.52;11.41
39729;BME280;25402;42.004;23.088;2023-09-12T11:39:57;97354.63;;;29.62;10.33
39729;BME280;25402;42.004;23.088;2023-09-12T11:42:24;97389.13;;;29.88;11.15
39729;BME280;25402;42.004;23.088;2023-09-12T11:44:52;97385.56;;;29.96;11.08
39729;BME280;25402;42.004;23.088;2023-09-12T11:47:19;97383.34;;;29.85;10.53
39729;BME280;25402;42.004;23.088;2023-09-12T11:49:46;97381.25;;;29.68;10.45
39729;BME280;25402;42.004;23.088;2023-09-12T11:52:14;97345.66;;;29.15;10.89
39729;BME280;25402;42.004;23.088;2023-09-12T11:54:44;97325.13;;;29.25;10.84
39729;BME280;25402;42.004;23.088;2023-09-12T11:57:15;97348.25;;;29.48;11.78
39729;BME280;25402;42.004;23.088;2023-09-12T11:59:43;97305.06;;;28.73;12.61
39729;BME280;25402;42.004;23.088;2023-09-12T12:02:12;97366.66;;;28.66;12.78
39729;BME280;25402;42.004;23.088;2023-09-12T12:04:40;97404.03;;;29.06;12.50
39729;BME280;25402;42.004;23.088;2023-09-12T12:07:09;97321.41;;;28.61;12.78
39729;BME280;25402;42.004;23.088;2023-09-12T12:09:36;97393.09;;;28.96;12.24
39729;BME280;25402;42.004;23.088;2023-09-12T12:12:04;97346.19;;;28.76;12.35
39729;BME280;25402;42.004;23.088;2023-09-12T12:14:39;97322.75;;;29.04;11.95
39729;BME280;25402;42.004;23.088;2023-09-12T12:17:07;97372.56;;;29.69;11.97
39729;BME280;25402;42.004;23.088;2023-09-12T12:19:36;97353.94;;;29.79;11.86
39729;BME280;25402;42.004;23.088;2023-09-12T12:22:04;97313.97;;;29.83;11.69
39729;BME280;25402;42.004;23.088;2023-09-12T12:24:39;97327.69;;;30.24;11.18
39729;BME280;25402;42.004;23.088;2023-09-12T12:27:06;97362.91;;;30.42;10.80
39729;BME280;25402;42.004;23.088;2023-09-12T12:29:37;97367.84;;;30.37;10.72
39729;BME280;25402;42.004;23.088;2023-09-12T12:32:05;97362.28;;;30.45;10.59
39729;BME280;25402;42.004;23.088;2023-09-12T12:34:34;97274.00;;;29.65;10.83
39729;BME280;25402;42.004;23.088;2023-09-12T12:37:02;97319.66;;;29.56;10.73
39729;BME280;25402;42.004;23.088;2023-09-12T12:39:29;97331.72;;;29.51;10.72
39729;BME280;25402;42.004;23.088;2023-09-12T12:41:56;97318.66;;;29.74;11.33
39729;BME280;25402;42.004;23.088;2023-09-12T12:44:32;97347.88;;;29.99;10.80
39729;BME280;25402;42.004;23.088;2023-09-12T12:47:04;97355.47;;;30.07;10.83
39729;BME280;25402;42.004;23.088;2023-09-12T12:49:36;97326.06;;;29.79;10.08
39729;BME280;25402;42.004;23.088;2023-09-12T12:52:04;97288.09;;;29.91;10.54
39729;BME280;25402;42.004;23.088;2023-09-12T12:54:32;97249.63;;;28.99;11.21
39729;BME280;25402;42.004;23.088;2023-09-12T12:57:00;97281.72;;;29.68;10.89
39729;BME280;25402;42.004;23.088;2023-09-12T12:59:28;97288.16;;;29.78;10.89
39729;BME280;25402;42.004;23.088;2023-09-12T13:02:01;97251.94;;;29.78;10.67